sensor_id;sensor_type;location;lat;lon;timestamp;P1;P2;P0
80639;PMS5003;69992;60.170;24.692;2023-05-10T00:00:33;10;9;
80639;PMS5003;69992;60.170;24.692;2023-05-10T00:02:58;8;8;
80639;PMS5003;69992;60.170;24.692;2023-05-10T00:05:24;9;9;
80639;PMS5003;69992;60.170;24.692;2023-05-10T00:07:50;10;8;
80639;PMS5003;69992;60.170;24.692;2023-05-10T00:10:16;10;10;
80639;PMS5003;69992;60.170;24.692;2023-05-10T00:12:42;9;9;
80639;PMS5003;69992;60.170;24.692;2023-05-10T00:15:08;10;10;
80639;PMS5003;69992;60.170;24.692;2023-05-10T00:17:33;9;9;
80639;PMS5003;69992;60.170;24.692;2023-05-10T00:19:59;11;8;
80639;PMS5003;69992;60.170;24.692;2023-05-10T00:22:25;8;8;
80639;PMS5003;69992;60.170;24.692;2023-05-10T00:24:50;8;8;
80639;PMS5003;69992;60.170;24.692;2023-05-10T00:27:16;10;10;
80639;PMS5003;69992;60.170;24.692;2023-05-10T00:29:42;13;10;
80639;PMS5003;69992;60.170;24.692;2023-05-10T00:32:08;10;9;
80639;PMS5003;69992;60.170;24.692;2023-05-10T00:34:34;9;9;
80639;PMS5003;69992;60.170;24.692;2023-05-10T00:36:59;9;9;
80639;PMS5003;69992;60.170;24.692;2023-05-10T00:39:25;16;16;
80639;PMS5003;69992;60.170;24.692;2023-05-10T00:41:51;22;22;
80639;PMS5003;69992;60.170;24.692;2023-05-10T00:44:16;12;12;
80639;PMS5003;69992;60.170;24.692;2023-05-10T00:46:42;13;9;
80639;PMS5003;69992;60.170;24.692;2023-05-10T00:49:07;12;10;
80639;PMS5003;69992;60.170;24.692;2023-05-10T00:51:33;9;9;
80639;PMS5003;69992;60.170;24.692;2023-05-10T00:53:59;7;7;
80639;PMS5003;69992;60.170;24.692;2023-05-10T00:56:25;10;9;
80639;PMS5003;69992;60.170;24.692;2023-05-10T00:58:51;8;8;
80639;PMS5003;69992;60.170;24.692;2023-05-10T01:01:17;8;8;
80639;PMS5003;69992;60.170;24.692;2023-05-10T01:03:42;7;7;
80639;PMS5003;69992;60.170;24.692;2023-05-10T01:06:08;6;5;
80639;PMS5003;69992;60.170;24.692;2023-05-10T01:08:34;7;7;
80639;PMS5003;69992;60.170;24.692;2023-05-10T01:11:00;8;7;
80639;PMS5003;69992;60.170;24.692;2023-05-10T01:13:29;8;8;
80639;PMS5003;69992;60.170;24.692;2023-05-10T01:15:51;8;8;
80639;PMS5003;69992;60.170;24.692;2023-05-10T01:18:17;8;7;
80639;PMS5003;69992;60.170;24.692;2023-05-10T01:20:43;8;8;
80639;PMS5003;69992;60.170;24.692;2023-05-10T01:23:23;13;12;
80639;PMS5003;69992;60.170;24.692;2023-05-10T01:25:39;9;9;
80639;PMS5003;69992;60.170;24.692;2023-05-10T01:28:06;9;9;
80639;PMS5003;69992;60.170;24.692;2023-05-10T01:32:53;6;6;
80639;PMS5003;69992;60.170;24.692;2023-05-10T01:35:19;9;8;
80639;PMS5003;69992;60.170;24.692;2023-05-10T01:37:45;8;8;
80639;PMS5003;69992;60.170;24.692;2023-05-10T01:40:13;12;9;
80639;PMS5003;69992;60.170;24.692;2023-05-10T01:42:36;11;9;
80639;PMS5003;69992;60.170;24.692;2023-05-10T01:45:04;11;11;
80639;PMS5003;69992;60.170;24.692;2023-05-10T01:47:28;12;11;
80639;PMS5003;69992;60.170;24.692;2023-05-10T01:49:54;8;8;
80639;PMS5003;69992;60.170;24.692;2023-05-10T01:52:19;14;12;
80639;PMS5003;69992;60.170;24.692;2023-05-10T01:54:45;8;8;
80639;PMS5003;69992;60.170;24.692;2023-05-10T01:57:10;12;12;
80639;PMS5003;69992;60.170;24.692;2023-05-10T01:59:36;11;9;
80639;PMS5003;69992;60.170;24.692;2023-05-10T02:02:01;7;7;
80639;PMS5003;69992;60.170;24.692;2023-05-10T02:04:27;7;7;
80639;PMS5003;69992;60.170;24.692;2023-05-10T02:06:53;11;11;
80639;PMS5003;69992;60.170;24.692;2023-05-10T02:09:18;14;11;
80639;PMS5003;69992;60.170;24.692;2023-05-10T02:11:44;10;10;
80639;PMS5003;69992;60.170;24.692;2023-05-10T02:14:10;12;11;
80639;PMS5003;69992;60.170;24.692;2023-05-10T02:16:36;15;12;
80639;PMS5003;69992;60.170;24.692;2023-05-10T02:19:01;13;12;
80639;PMS5003;69992;60.170;24.692;2023-05-10T02:21:26;13;13;
80639;PMS5003;69992;60.170;24.692;2023-05-10T02:23:52;13;12;
80639;PMS5003;69992;60.170;24.692;2023-05-10T02:26:17;8;8;
80639;PMS5003;69992;60.170;24.692;2023-05-10T02:28:43;10;10;
80639;PMS5003;69992;60.170;24.692;2023-05-10T02:31:08;11;11;
80639;PMS5003;69992;60.170;24.692;2023-05-10T02:33:34;10;8;
80639;PMS5003;69992;60.170;24.692;2023-05-10T02:35:59;8;8;
80639;PMS5003;69992;60.170;24.692;2023-05-10T02:38:25;11;10;
80639;PMS5003;69992;60.170;24.692;2023-05-10T02:40:50;11;11;
80639;PMS5003;69992;60.170;24.692;2023-05-10T02:43:16;11;11;
80639;PMS5003;69992;60.170;24.692;2023-05-10T02:45:41;8;8;
80639;PMS5003;69992;60.170;24.692;2023-05-10T02:48:06;15;10;
80639;PMS5003;69992;60.170;24.692;2023-05-10T02:50:32;11;10;
80639;PMS5003;69992;60.170;24.692;2023-05-10T02:52:59;12;10;
80639;PMS5003;69992;60.170;24.692;2023-05-10T02:55:23;8;8;
80639;PMS5003;69992;60.170;24.692;2023-05-10T02:57:48;8;6;
80639;PMS5003;69992;60.170;24.692;2023-05-10T03:00:13;12;11;
80639;PMS5003;69992;60.170;24.692;2023-05-10T03:02:38;11;10;
80639;PMS5003;69992;60.170;24.692;2023-05-10T03:05:04;10;10;
80639;PMS5003;69992;60.170;24.692;2023-05-10T03:07:29;11;11;
80639;PMS5003;69992;60.170;24.692;2023-05-10T03:09:54;8;8;
80639;PMS5003;69992;60.170;24.692;2023-05-10T03:12:23;8;7;
80639;PMS5003;69992;60.170;24.692;2023-05-10T03:14:49;11;11;
80639;PMS5003;69992;60.170;24.692;2023-05-10T03:17:14;13;12;
80639;PMS5003;69992;60.170;24.692;2023-05-10T03:19:39;10;10;
80639;PMS5003;69992;60.170;24.692;2023-05-10T03:22:03;10;10;
80639;PMS5003;69992;60.170;24.692;2023-05-10T03:24:28;11;11;
80639;PMS5003;69992;60.170;24.692;2023-05-10T03:26:54;8;8;
80639;PMS5003;69992;60.170;24.692;2023-05-10T03:29:20;8;8;
80639;PMS5003;69992;60.170;24.692;2023-05-10T03:31:45;11;11;
80639;PMS5003;69992;60.170;24.692;2023-05-10T03:34:11;12;11;
80639;PMS5003;69992;60.170;24.692;2023-05-10T03:36:36;11;11;
80639;PMS5003;69992;60.170;24.692;2023-05-10T03:39:01;9;9;
80639;PMS5003;69992;60.170;24.692;2023-05-10T03:41:27;12;11;
80639;PMS5003;69992;60.170;24.692;2023-05-10T03:43:53;8;8;
80639;PMS5003;69992;60.170;24.692;2023-05-10T03:46:19;13;12;
80639;PMS5003;69992;60.170;24.692;2023-05-10T03:48:44;11;11;
80639;PMS5003;69992;60.170;24.692;2023-05-10T03:51:10;12;11;
80639;PMS5003;69992;60.170;24.692;2023-05-10T03:53:36;8;8;
80639;PMS5003;69992;60.170;24.692;2023-05-10T03:56:02;8;8;
80639;PMS5003;69992;60.170;24.692;2023-05-10T03:58:28;8;8;
80639;PMS5003;69992;60.170;24.692;2023-05-10T04:00:53;9;9;
80639;PMS5003;69992;60.170;24.692;2023-05-10T04:03:19;12;10;
80639;PMS5003;69992;60.170;24.692;2023-05-10T04:05:45;13;13;
80639;PMS5003;69992;60.170;24.692;2023-05-10T04:08:11;9;8;
80639;PMS5003;69992;60.170;24.692;2023-05-10T04:10:37;9;9;
80639;PMS5003;69992;60.170;24.692;2023-05-10T04:13:02;10;10;
80639;PMS5003;69992;60.170;24.692;2023-05-10T04:15:28;9;9;
80639;PMS5003;69992;60.170;24.692;2023-05-10T04:17:54;10;9;
80639;PMS5003;69992;60.170;24.692;2023-05-10T04:20:20;8;8;
80639;PMS5003;69992;60.170;24.692;2023-05-10T04:22:46;10;10;
80639;PMS5003;69992;60.170;24.692;2023-05-10T04:25:12;10;10;
80639;PMS5003;69992;60.170;24.692;2023-05-10T04:27:37;10;10;
80639;PMS5003;69992;60.170;24.692;2023-05-10T04:30:04;9;8;
80639;PMS5003;69992;60.170;24.692;2023-05-10T04:32:29;12;11;
80639;PMS5003;69992;60.170;24.692;2023-05-10T04:34:55;11;10;
80639;PMS5003;69992;60.170;24.692;2023-05-10T04:37:20;11;10;
80639;PMS5003;69992;60.170;24.692;2023-05-10T04:39:46;9;9;
80639;PMS5003;69992;60.170;24.692;2023-05-10T04:42:12;12;11;
80639;PMS5003;69992;60.170;24.692;2023-05-10T04:44:38;11;10;
80639;PMS5003;69992;60.170;24.692;2023-05-10T04:47:04;9;9;
80639;PMS5003;69992;60.170;24.692;2023-05-10T04:49:29;12;11;
80639;PMS5003;69992;60.170;24.692;2023-05-10T04:51:55;10;9;
80639;PMS5003;69992;60.170;24.692;2023-05-10T04:54:21;11;9;
80639;PMS5003;69992;60.170;24.692;2023-05-10T04:56:47;8;8;
80639;PMS5003;69992;60.170;24.692;2023-05-10T04:59:12;10;10;
80639;PMS5003;69992;60.170;24.692;2023-05-10T05:01:38;9;9;
80639;PMS5003;69992;60.170;24.692;2023-05-10T05:04:04;11;10;
80639;PMS5003;69992;60.170;24.692;2023-05-10T05:06:29;11;10;
80639;PMS5003;69992;60.170;24.692;2023-05-10T05:08:55;9;9;
80639;PMS5003;69992;60.170;24.692;2023-05-10T05:11:21;11;10;
80639;PMS5003;69992;60.170;24.692;2023-05-10T05:13:46;9;9;
80639;PMS5003;69992;60.170;24.692;2023-05-10T05:16:12;9;8;
80639;PMS5003;69992;60.170;24.692;2023-05-10T05:18:38;10;10;
80639;PMS5003;69992;60.170;24.692;2023-05-10T05:23:29;10;9;
80639;PMS5003;69992;60.170;24.692;2023-05-10T05:25:55;10;10;
80639;PMS5003;69992;60.170;24.692;2023-05-10T05:28:20;10;10;
80639;PMS5003;69992;60.170;24.692;2023-05-10T05:30:46;12;12;
80639;PMS5003;69992;60.170;24.692;2023-05-10T05:33:13;11;10;
80639;PMS5003;69992;60.170;24.692;2023-05-10T05:35:37;11;10;
80639;PMS5003;69992;60.170;24.692;2023-05-10T05:38:03;12;12;
80639;PMS5003;69992;60.170;24.692;2023-05-10T05:40:29;12;11;
80639;PMS5003;69992;60.170;24.692;2023-05-10T05:42:54;15;12;
80639;PMS5003;69992;60.170;24.692;2023-05-10T05:45:20;10;8;
80639;PMS5003;69992;60.170;24.692;2023-05-10T05:47:45;11;10;
80639;PMS5003;69992;60.170;24.692;2023-05-10T05:50:11;9;8;
80639;PMS5003;69992;60.170;24.692;2023-05-10T05:52:37;9;9;
80639;PMS5003;69992;60.170;24.692;2023-05-10T05:55:03;11;11;
80639;PMS5003;69992;60.170;24.692;2023-05-10T05:57:28;10;7;
80639;PMS5003;69992;60.170;24.692;2023-05-10T05:59:54;9;9;
80639;PMS5003;69992;60.170;24.692;2023-05-10T06:02:19;9;8;
80639;PMS5003;69992;60.170;24.692;2023-05-10T06:04:45;8;8;
80639;PMS5003;69992;60.170;24.692;2023-05-10T06:07:11;10;9;
80639;PMS5003;69992;60.170;24.692;2023-05-10T06:09:36;6;6;
80639;PMS5003;69992;60.170;24.692;2023-05-10T06:12:02;9;9;
80639;PMS5003;69992;60.170;24.692;2023-05-10T06:14:27;10;10;
80639;PMS5003;69992;60.170;24.692;2023-05-10T06:16:53;9;8;
80639;PMS5003;69992;60.170;24.692;2023-05-10T06:19:18;8;8;
80639;PMS5003;69992;60.170;24.692;2023-05-10T06:21:44;12;10;
80639;PMS5003;69992;60.170;24.692;2023-05-10T06:24:09;10;10;
80639;PMS5003;69992;60.170;24.692;2023-05-10T06:26:35;9;8;
80639;PMS5003;69992;60.170;24.692;2023-05-10T06:29:01;9;9;
80639;PMS5003;69992;60.170;24.692;2023-05-10T06:31:26;9;9;
80639;PMS5003;69992;60.170;24.692;2023-05-10T06:33:52;9;8;
80639;PMS5003;69992;60.170;24.692;2023-05-10T06:36:17;9;8;
80639;PMS5003;69992;60.170;24.692;2023-05-10T06:38:43;9;9;
80639;PMS5003;69992;60.170;24.692;2023-05-10T06:41:09;7;7;
80639;PMS5003;69992;60.170;24.692;2023-05-10T06:43:34;10;9;
80639;PMS5003;69992;60.170;24.692;2023-05-10T06:46:00;11;11;
80639;PMS5003;69992;60.170;24.692;2023-05-10T06:48:25;10;10;
80639;PMS5003;69992;60.170;24.692;2023-05-10T06:50:51;10;10;
80639;PMS5003;69992;60.170;24.692;2023-05-10T06:53:17;7;7;
80639;PMS5003;69992;60.170;24.692;2023-05-10T06:55:42;9;9;
80639;PMS5003;69992;60.170;24.692;2023-05-10T06:58:08;7;7;
80639;PMS5003;69992;60.170;24.692;2023-05-10T07:00:34;9;9;
80639;PMS5003;69992;60.170;24.692;2023-05-10T07:02:59;8;8;
80639;PMS5003;69992;60.170;24.692;2023-05-10T07:05:25;7;7;
80639;PMS5003;69992;60.170;24.692;2023-05-10T07:07:51;10;10;
80639;PMS5003;69992;60.170;24.692;2023-05-10T07:10:17;9;9;
80639;PMS5003;69992;60.170;24.692;2023-05-10T07:12:42;10;10;
80639;PMS5003;69992;60.170;24.692;2023-05-10T07:15:08;8;8;
80639;PMS5003;69992;60.170;24.692;2023-05-10T07:17:33;9;9;
80639;PMS5003;69992;60.170;24.692;2023-05-10T07:19:59;10;10;
80639;PMS5003;69992;60.170;24.692;2023-05-10T07:22:25;7;7;
80639;PMS5003;69992;60.170;24.692;2023-05-10T07:24:50;12;11;
80639;PMS5003;69992;60.170;24.692;2023-05-10T07:27:15;10;9;
80639;PMS5003;69992;60.170;24.692;2023-05-10T07:29:41;8;8;
80639;PMS5003;69992;60.170;24.692;2023-05-10T07:32:07;9;9;
80639;PMS5003;69992;60.170;24.692;2023-05-10T07:34:32;9;8;
80639;PMS5003;69992;60.170;24.692;2023-05-10T07:36:58;10;9;
80639;PMS5003;69992;60.170;24.692;2023-05-10T07:39:24;6;6;
80639;PMS5003;69992;60.170;24.692;2023-05-10T07:41:49;7;7;
80639;PMS5003;69992;60.170;24.692;2023-05-10T07:44:15;10;9;
80639;PMS5003;69992;60.170;24.692;2023-05-10T07:46:40;11;10;
80639;PMS5003;69992;60.170;24.692;2023-05-10T07:49:06;10;9;
80639;PMS5003;69992;60.170;24.692;2023-05-10T07:51:31;9;8;
80639;PMS5003;69992;60.170;24.692;2023-05-10T07:53:57;9;9;
80639;PMS5003;69992;60.170;24.692;2023-05-10T07:56:23;9;8;
80639;PMS5003;69992;60.170;24.692;2023-05-10T07:58:48;8;8;
80639;PMS5003;69992;60.170;24.692;2023-05-10T08:01:14;14;12;
80639;PMS5003;69992;60.170;24.692;2023-05-10T08:03:40;8;8;
80639;PMS5003;69992;60.170;24.692;2023-05-10T08:06:05;12;11;
80639;PMS5003;69992;60.170;24.692;2023-05-10T08:08:31;9;8;
80639;PMS5003;69992;60.170;24.692;2023-05-10T08:10:56;7;7;
80639;PMS5003;69992;60.170;24.692;2023-05-10T08:13:22;8;8;
80639;PMS5003;69992;60.170;24.692;2023-05-10T08:15:47;9;8;
80639;PMS5003;69992;60.170;24.692;2023-05-10T08:18:13;8;8;
80639;PMS5003;69992;60.170;24.692;2023-05-10T08:20:39;9;9;
80639;PMS5003;69992;60.170;24.692;2023-05-10T08:23:04;9;8;
80639;PMS5003;69992;60.170;24.692;2023-05-10T08:25:30;9;9;
80639;PMS5003;69992;60.170;24.692;2023-05-10T08:27:55;8;8;
80639;PMS5003;69992;60.170;24.692;2023-05-10T08:30:21;9;8;
80639;PMS5003;69992;60.170;24.692;2023-05-10T08:32:46;10;8;
80639;PMS5003;69992;60.170;24.692;2023-05-10T08:35:12;9;9;
80639;PMS5003;69992;60.170;24.692;2023-05-10T08:37:37;7;7;
80639;PMS5003;69992;60.170;24.692;2023-05-10T08:40:03;7;6;
80639;PMS5003;69992;60.170;24.692;2023-05-10T08:42:30;7;7;
80639;PMS5003;69992;60.170;24.692;2023-05-10T08:44:54;8;8;
80639;PMS5003;69992;60.170;24.692;2023-05-10T08:47:19;8;8;
80639;PMS5003;69992;60.170;24.692;2023-05-10T08:49:45;7;7;
80639;PMS5003;69992;60.170;24.692;2023-05-10T08:52:10;8;7;
80639;PMS5003;69992;60.170;24.692;2023-05-10T08:54:36;5;5;
80639;PMS5003;69992;60.170;24.692;2023-05-10T08:57:01;10;9;
80639;PMS5003;69992;60.170;24.692;2023-05-10T08:59:27;8;8;
80639;PMS5003;69992;60.170;24.692;2023-05-10T09:01:53;7;7;
80639;PMS5003;69992;60.170;24.692;2023-05-10T09:04:18;8;8;
80639;PMS5003;69992;60.170;24.692;2023-05-10T09:06:44;6;6;
80639;PMS5003;69992;60.170;24.692;2023-05-10T09:09:09;7;7;
80639;PMS5003;69992;60.170;24.692;2023-05-10T09:11:35;10;10;
80639;PMS5003;69992;60.170;24.692;2023-05-10T09:14:00;12;12;
80639;PMS5003;69992;60.170;24.692;2023-05-10T09:16:26;9;9;
80639;PMS5003;69992;60.170;24.692;2023-05-10T09:18:51;9;8;
80639;PMS5003;69992;60.170;24.692;2023-05-10T09:21:17;12;10;
80639;PMS5003;69992;60.170;24.692;2023-05-10T09:23:42;7;6;
80639;PMS5003;69992;60.170;24.692;2023-05-10T09:26:08;7;6;
80639;PMS5003;69992;60.170;24.692;2023-05-10T09:28:34;8;8;
80639;PMS5003;69992;60.170;24.692;2023-05-10T09:30:59;8;7;
80639;PMS5003;69992;60.170;24.692;2023-05-10T09:33:25;9;7;
80639;PMS5003;69992;60.170;24.692;2023-05-10T09:35:50;5;5;
80639;PMS5003;69992;60.170;24.692;2023-05-10T09:38:15;3;3;
80639;PMS5003;69992;60.170;24.692;2023-05-10T09:40:41;5;5;
80639;PMS5003;69992;60.170;24.692;2023-05-10T09:43:07;4;4;
80639;PMS5003;69992;60.170;24.692;2023-05-10T09:45:32;7;6;
80639;PMS5003;69992;60.170;24.692;2023-05-10T09:47:57;6;6;
80639;PMS5003;69992;60.170;24.692;2023-05-10T09:50:23;6;6;
80639;PMS5003;69992;60.170;24.692;2023-05-10T09:52:49;7;6;
80639;PMS5003;69992;60.170;24.692;2023-05-10T09:55:13;8;6;
80639;PMS5003;69992;60.170;24.692;2023-05-10T09:57:39;4;4;
80639;PMS5003;69992;60.170;24.692;2023-05-10T10:00:05;5;5;
80639;PMS5003;69992;60.170;24.692;2023-05-10T10:02:30;5;4;
80639;PMS5003;69992;60.170;24.692;2023-05-10T10:04:55;6;6;
80639;PMS5003;69992;60.170;24.692;2023-05-10T10:07:22;7;6;
80639;PMS5003;69992;60.170;24.692;2023-05-10T10:09:46;8;7;
80639;PMS5003;69992;60.170;24.692;2023-05-10T10:12:11;5;5;
80639;PMS5003;69992;60.170;24.692;2023-05-10T10:14:37;5;5;
80639;PMS5003;69992;60.170;24.692;2023-05-10T10:17:02;6;6;
80639;PMS5003;69992;60.170;24.692;2023-05-10T10:19:27;8;8;
80639;PMS5003;69992;60.170;24.692;2023-05-10T10:21:53;8;6;
80639;PMS5003;69992;60.170;24.692;2023-05-10T10:24:18;7;6;
80639;PMS5003;69992;60.170;24.692;2023-05-10T10:26:43;5;5;
80639;PMS5003;69992;60.170;24.692;2023-05-10T10:29:12;7;7;
80639;PMS5003;69992;60.170;24.692;2023-05-10T10:31:36;6;5;
80639;PMS5003;69992;60.170;24.692;2023-05-10T10:34:00;6;5;
80639;PMS5003;69992;60.170;24.692;2023-05-10T10:36:25;6;5;
80639;PMS5003;69992;60.170;24.692;2023-05-10T10:38:57;5;4;
80639;PMS5003;69992;60.170;24.692;2023-05-10T10:43:41;6;6;
80639;PMS5003;69992;60.170;24.692;2023-05-10T10:46:10;7;7;
80639;PMS5003;69992;60.170;24.692;2023-05-10T10:48:32;6;6;
80639;PMS5003;69992;60.170;24.692;2023-05-10T10:50:57;6;6;
80639;PMS5003;69992;60.170;24.692;2023-05-10T10:53:25;7;7;
80639;PMS5003;69992;60.170;24.692;2023-05-10T10:55:48;9;7;
80639;PMS5003;69992;60.170;24.692;2023-05-10T11:00:39;6;6;
80639;PMS5003;69992;60.170;24.692;2023-05-10T11:03:05;8;8;
80639;PMS5003;69992;60.170;24.692;2023-05-10T11:05:37;6;6;
80639;PMS5003;69992;60.170;24.692;2023-05-10T11:07:56;7;7;
80639;PMS5003;69992;60.170;24.692;2023-05-10T11:10:21;8;8;
80639;PMS5003;69992;60.170;24.692;2023-05-10T11:12:52;7;7;
80639;PMS5003;69992;60.170;24.692;2023-05-10T11:15:12;7;7;
80639;PMS5003;69992;60.170;24.692;2023-05-10T11:17:37;8;7;
80639;PMS5003;69992;60.170;24.692;2023-05-10T11:20:06;6;5;
80639;PMS5003;69992;60.170;24.692;2023-05-10T11:22:28;8;7;
80639;PMS5003;69992;60.170;24.692;2023-05-10T11:24:57;7;7;
80639;PMS5003;69992;60.170;24.692;2023-05-10T11:27:19;8;8;
80639;PMS5003;69992;60.170;24.692;2023-05-10T11:29:45;6;6;
80639;PMS5003;69992;60.170;24.692;2023-05-10T11:32:10;8;8;
80639;PMS5003;69992;60.170;24.692;2023-05-10T11:34:36;7;7;
80639;PMS5003;69992;60.170;24.692;2023-05-10T11:37:01;8;8;
80639;PMS5003;69992;60.170;24.692;2023-05-10T11:39:27;8;7;
80639;PMS5003;69992;60.170;24.692;2023-05-10T11:41:52;7;6;
80639;PMS5003;69992;60.170;24.692;2023-05-10T11:44:17;8;7;
80639;PMS5003;69992;60.170;24.692;2023-05-10T11:46:43;6;6;
80639;PMS5003;69992;60.170;24.692;2023-05-10T11:49:08;8;8;
80639;PMS5003;69992;60.170;24.692;2023-05-10T11:51:34;8;8;
80639;PMS5003;69992;60.170;24.692;2023-05-10T11:53:59;6;6;
80639;PMS5003;69992;60.170;24.692;2023-05-10T11:56:25;6;6;
80639;PMS5003;69992;60.170;24.692;2023-05-10T11:58:52;7;7;
80639;PMS5003;69992;60.170;24.692;2023-05-10T12:01:15;7;7;
80639;PMS5003;69992;60.170;24.692;2023-05-10T12:03:41;7;7;
80639;PMS5003;69992;60.170;24.692;2023-05-10T12:06:06;6;6;
80639;PMS5003;69992;60.170;24.692;2023-05-10T12:08:32;6;6;
80639;PMS5003;69992;60.170;24.692;2023-05-10T12:13:23;6;6;
80639;PMS5003;69992;60.170;24.692;2023-05-10T12:15:48;6;6;
80639;PMS5003;69992;60.170;24.692;2023-05-10T12:18:14;7;7;
80639;PMS5003;69992;60.170;24.692;2023-05-10T12:20:39;6;6;
80639;PMS5003;69992;60.170;24.692;2023-05-10T12:23:04;7;7;
80639;PMS5003;69992;60.170;24.692;2023-05-10T12:25:30;7;6;
80639;PMS5003;69992;60.170;24.692;2023-05-10T12:27:56;8;8;
80639;PMS5003;69992;60.170;24.692;2023-05-10T12:30:21;7;7;
80639;PMS5003;69992;60.170;24.692;2023-05-10T12:32:46;7;5;
80639;PMS5003;69992;60.170;24.692;2023-05-10T12:35:11;6;6;
80639;PMS5003;69992;60.170;24.692;2023-05-10T12:37:37;7;7;
80639;PMS5003;69992;60.170;24.692;2023-05-10T12:40:02;6;6;
80639;PMS5003;69992;60.170;24.692;2023-05-10T12:42:28;6;6;
80639;PMS5003;69992;60.170;24.692;2023-05-10T12:44:54;5;5;
80639;PMS5003;69992;60.170;24.692;2023-05-10T12:47:18;5;5;
80639;PMS5003;69992;60.170;24.692;2023-05-10T12:49:43;7;6;
80639;PMS5003;69992;60.170;24.692;2023-05-10T12:52:09;5;5;
80639;PMS5003;69992;60.170;24.692;2023-05-10T12:54:34;6;6;
80639;PMS5003;69992;60.170;24.692;2023-05-10T12:57:00;5;4;
80639;PMS5003;69992;60.170;24.692;2023-05-10T12:59:25;6;6;
80639;PMS5003;69992;60.170;24.692;2023-05-10T13:01:50;7;7;
80639;PMS5003;69992;60.170;24.692;2023-05-10T13:04:15;4;4;
80639;PMS5003;69992;60.170;24.692;2023-05-10T13:06:41;4;4;
80639;PMS5003;69992;60.170;24.692;2023-05-10T13:09:06;6;6;
80639;PMS5003;69992;60.170;24.692;2023-05-10T13:11:31;7;7;
80639;PMS5003;69992;60.170;24.692;2023-05-10T13:13:57;6;6;
80639;PMS5003;69992;60.170;24.692;2023-05-10T13:16:22;7;7;
80639;PMS5003;69992;60.170;24.692;2023-05-10T13:18:47;6;5;
80639;PMS5003;69992;60.170;24.692;2023-05-10T13:21:13;7;7;
80639;PMS5003;69992;60.170;24.692;2023-05-10T13:23:38;5;5;
80639;PMS5003;69992;60.170;24.692;2023-05-10T13:26:03;6;6;
80639;PMS5003;69992;60.170;24.692;2023-05-10T13:28:29;6;6;
80639;PMS5003;69992;60.170;24.692;2023-05-10T13:30:54;6;6;
80639;PMS5003;69992;60.170;24.692;2023-05-10T13:33:19;7;5;
80639;PMS5003;69992;60.170;24.692;2023-05-10T13:35:44;7;6;
80639;PMS5003;69992;60.170;24.692;2023-05-10T13:38:10;6;6;
80639;PMS5003;69992;60.170;24.692;2023-05-10T13:40:35;6;6;
80639;PMS5003;69992;60.170;24.692;2023-05-10T13:43:00;6;6;
80639;PMS5003;69992;60.170;24.692;2023-05-10T13:45:26;8;8;
80639;PMS5003;69992;60.170;24.692;2023-05-10T13:47:51;6;6;
80639;PMS5003;69992;60.170;24.692;2023-05-10T13:50:16;6;5;
80639;PMS5003;69992;60.170;24.692;2023-05-10T13:52:42;7;6;
80639;PMS5003;69992;60.170;24.692;2023-05-10T13:55:07;6;6;
80639;PMS5003;69992;60.170;24.692;2023-05-10T13:57:32;7;6;
80639;PMS5003;69992;60.170;24.692;2023-05-10T13:59:58;8;7;
80639;PMS5003;69992;60.170;24.692;2023-05-10T14:02:23;7;7;
80639;PMS5003;69992;60.170;24.692;2023-05-10T14:04:48;7;7;
80639;PMS5003;69992;60.170;24.692;2023-05-10T14:07:14;6;6;
80639;PMS5003;69992;60.170;24.692;2023-05-10T14:09:39;7;7;
80639;PMS5003;69992;60.170;24.692;2023-05-10T14:12:04;7;7;
80639;PMS5003;69992;60.170;24.692;2023-05-10T14:14:30;7;7;
80639;PMS5003;69992;60.170;24.692;2023-05-10T14:16:55;8;8;
80639;PMS5003;69992;60.170;24.692;2023-05-10T14:19:20;7;7;
80639;PMS5003;69992;60.170;24.692;2023-05-10T14:21:46;6;6;
80639;PMS5003;69992;60.170;24.692;2023-05-10T14:24:11;6;5;
80639;PMS5003;69992;60.170;24.692;2023-05-10T14:26:36;7;6;
80639;PMS5003;69992;60.170;24.692;2023-05-10T14:29:02;8;8;
80639;PMS5003;69992;60.170;24.692;2023-05-10T14:31:27;8;8;
80639;PMS5003;69992;60.170;24.692;2023-05-10T14:33:52;7;7;
80639;PMS5003;69992;60.170;24.692;2023-05-10T14:36:18;7;7;
80639;PMS5003;69992;60.170;24.692;2023-05-10T14:38:43;6;5;
80639;PMS5003;69992;60.170;24.692;2023-05-10T14:41:08;6;6;
80639;PMS5003;69992;60.170;24.692;2023-05-10T14:43:34;7;7;
80639;PMS5003;69992;60.170;24.692;2023-05-10T14:45:59;6;6;
80639;PMS5003;69992;60.170;24.692;2023-05-10T14:48:25;7;6;
80639;PMS5003;69992;60.170;24.692;2023-05-10T14:50:50;8;7;
80639;PMS5003;69992;60.170;24.692;2023-05-10T14:53:15;6;6;
80639;PMS5003;69992;60.170;24.692;2023-05-10T14:55:40;8;8;
80639;PMS5003;69992;60.170;24.692;2023-05-10T14:58:05;7;7;
80639;PMS5003;69992;60.170;24.692;2023-05-10T15:00:31;7;7;
80639;PMS5003;69992;60.170;24.692;2023-05-10T15:02:56;6;6;
80639;PMS5003;69992;60.170;24.692;2023-05-10T15:05:21;8;8;
80639;PMS5003;69992;60.170;24.692;2023-05-10T15:07:47;7;6;
80639;PMS5003;69992;60.170;24.692;2023-05-10T15:10:12;10;8;
80639;PMS5003;69992;60.170;24.692;2023-05-10T15:12:37;8;8;
80639;PMS5003;69992;60.170;24.692;2023-05-10T15:15:03;8;8;
80639;PMS5003;69992;60.170;24.692;2023-05-10T15:17:28;8;8;
80639;PMS5003;69992;60.170;24.692;2023-05-10T15:19:54;7;7;
80639;PMS5003;69992;60.170;24.692;2023-05-10T15:22:19;10;9;
80639;PMS5003;69992;60.170;24.692;2023-05-10T15:24:44;7;7;
80639;PMS5003;69992;60.170;24.692;2023-05-10T15:27:10;7;7;
80639;PMS5003;69992;60.170;24.692;2023-05-10T15:29:35;5;5;
80639;PMS5003;69992;60.170;24.692;2023-05-10T15:32:01;9;9;
80639;PMS5003;69992;60.170;24.692;2023-05-10T15:34:26;6;6;
80639;PMS5003;69992;60.170;24.692;2023-05-10T15:36:51;8;8;
80639;PMS5003;69992;60.170;24.692;2023-05-10T15:39:17;7;7;
80639;PMS5003;69992;60.170;24.692;2023-05-10T15:41:42;9;9;
80639;PMS5003;69992;60.170;24.692;2023-05-10T15:44:08;9;8;
80639;PMS5003;69992;60.170;24.692;2023-05-10T15:46:33;6;6;
80639;PMS5003;69992;60.170;24.692;2023-05-10T15:48:58;9;7;
80639;PMS5003;69992;60.170;24.692;2023-05-10T15:51:24;8;7;
80639;PMS5003;69992;60.170;24.692;2023-05-10T15:53:49;7;7;
80639;PMS5003;69992;60.170;24.692;2023-05-10T15:56:15;7;7;
80639;PMS5003;69992;60.170;24.692;2023-05-10T15:58:40;8;7;
80639;PMS5003;69992;60.170;24.692;2023-05-10T16:01:05;11;11;
80639;PMS5003;69992;60.170;24.692;2023-05-10T16:03:31;8;8;
80639;PMS5003;69992;60.170;24.692;2023-05-10T16:05:56;8;8;
80639;PMS5003;69992;60.170;24.692;2023-05-10T16:08:22;8;8;
80639;PMS5003;69992;60.170;24.692;2023-05-10T16:10:47;8;8;
80639;PMS5003;69992;60.170;24.692;2023-05-10T16:13:13;9;8;
80639;PMS5003;69992;60.170;24.692;2023-05-10T16:15:38;8;8;
80639;PMS5003;69992;60.170;24.692;2023-05-10T16:18:04;9;9;
80639;PMS5003;69992;60.170;24.692;2023-05-10T16:20:29;9;7;
80639;PMS5003;69992;60.170;24.692;2023-05-10T16:22:54;9;8;
80639;PMS5003;69992;60.170;24.692;2023-05-10T16:25:20;9;9;